Time;durP1;ratioP1;P1;durP2;ratioP2;P2;SDS_P1;SDS_P2;PMS_P1;PMS_P2;Temp;Humidity;BMP_temperature;BMP_pressure;BME280_temperature;BME280_humidity;BME280_pressure;Samples;Min_cycle;Max_cycle;Signal;HPM_P1;HPM_P2
2023/05/20 00:00:25;;;;;;;10.23;7.40;;;;;;;16.06;88.24;99694.56;5035725;28;20655;-67
2023/05/20 00:02:52;;;;;;;9.93;7.70;;;;;;;16.03;87.85;99701.19;5025902;28;20285;-67
2023/05/20 00:05:19;;;;;;;7.97;7.37;;;;;;;15.93;87.62;99696.38;5031191;28;20674;-67
2023/05/20 00:07:46;;;;;;;8.67;7.97;;;;;;;15.97;87.64;99691.41;5035549;28;20194;-67
2023/05/20 00:10:12;;;;;;;9.60;7.60;;;;;;;16.00;87.30;99690.91;5035279;28;20198;-67
2023/05/20 00:12:40;;;;;;;9.17;7.73;;;;;;;15.85;87.32;99682.47;5034083;28;20193;-67
2023/05/20 00:15:10;;;;;;;9.43;7.37;;;;;;;15.84;87.82;99692.34;5035543;28;20244;-67
2023/05/20 00:17:37;;;;;;;9.40;7.70;;;;;;;15.80;87.99;99696.53;5035334;28;20197;-67
2023/05/20 00:20:05;;;;;;;8.47;7.73;;;;;;;15.82;87.99;99685.59;5034976;28;20244;-66
2023/05/20 00:22:31;;;;;;;7.70;7.10;;;;;;;15.81;88.03;99686.66;5015200;28;20670;-67
2023/05/20 00:24:58;;;;;;;8.77;8.00;;;;;;;15.84;88.39;99681.66;5015451;28;20190;-67
2023/05/20 00:27:25;;;;;;;8.30;7.50;;;;;;;15.90;88.19;99683.41;5015519;28;20194;-67
2023/05/20 00:29:53;;;;;;;9.63;7.20;;;;;;;15.84;87.89;99681.66;5015347;28;20278;-66
2023/05/20 00:32:20;;;;;;;7.73;7.03;;;;;;;15.71;87.79;99681.81;5032276;28;20251;-67
2023/05/20 00:34:56;;;;;;;8.77;8.07;;;;;;;15.63;88.70;99679.44;5034826;28;20657;-66
2023/05/20 00:37:22;;;;;;;10.70;7.63;;;;;;;15.53;88.94;99675.66;5034792;28;20212;-66
2023/05/20 00:39:49;;;;;;;8.80;7.83;;;;;;;15.43;89.35;99684.19;5034698;28;20272;-66
2023/05/20 00:42:20;;;;;;;9.30;7.10;;;;;;;15.27;90.18;99679.38;5034935;28;20201;-66
2023/05/20 00:44:47;;;;;;;8.00;7.40;;;;;;;15.19;90.60;99681.50;5032805;28;20207;-65
2023/05/20 00:47:15;;;;;;;10.77;7.70;;;;;;;15.09;91.20;99674.00;5034495;28;20255;-65
2023/05/20 00:49:42;;;;;;;9.30;8.50;;;;;;;15.23;91.07;99674.69;5034553;28;20198;-66
2023/05/20 00:52:09;;;;;;;8.70;7.97;;;;;;;15.28;91.05;99678.34;5026110;28;20248;-66
2023/05/20 00:54:36;;;;;;;9.77;7.47;;;;;;;15.27;91.10;99676.69;5015027;28;20190;-66
2023/05/20 00:57:05;;;;;;;9.67;8.57;;;;;;;15.29;91.34;99676.50;5014673;28;20252;-66
2023/05/20 00:59:32;;;;;;;9.13;8.43;;;;;;;15.32;91.90;99679.53;5014106;28;20190;-66
2023/05/20 01:01:59;;;;;;;9.33;8.43;;;;;;;15.36;91.14;99672.72;5019708;28;20790;-66
2023/05/20 01:04:27;;;;;;;9.53;8.70;;;;;;;15.46;91.30;99667.69;5025773;28;20244;-66
2023/05/20 01:06:56;;;;;;;10.00;9.17;;;;;;;15.53;90.55;99667.63;5014760;28;20197;-67
2023/05/20 01:09:23;;;;;;;9.87;8.97;;;;;;;15.59;91.00;99667.53;5014389;28;20682;-67
2023/05/20 01:11:56;;;;;;;9.87;9.07;;;;;;;15.58;90.33;99665.06;5014361;28;20260;-67
2023/05/20 01:14:26;;;;;;;10.50;9.43;;;;;;;15.59;90.55;99662.19;5022611;28;20649;-66
2023/05/20 01:16:57;;;;;;;10.00;9.17;;;;;;;15.65;90.58;99661.25;5034041;28;20251;-66
2023/05/20 01:19:35;;;;;;;10.20;9.20;;;;;;;15.65;90.38;99661.25;5033949;28;20192;-66
2023/05/20 01:22:05;;;;;;;11.07;9.23;;;;;;;15.67;90.81;99661.03;5031491;28;20646;-66
2023/05/20 01:24:33;;;;;;;17.90;9.20;;;;;;;15.71;90.82;99659.56;5033887;28;20712;-66
2023/05/20 01:27:00;;;;;;;10.40;9.57;;;;;;;15.79;90.21;99659.25;5030584;28;20201;-67
2023/05/20 01:29:27;;;;;;;10.40;9.60;;;;;;;15.79;90.22;99661.94;5022598;28;20228;-67
2023/05/20 01:31:56;;;;;;;10.33;9.33;;;;;;;15.69;90.81;99667.81;5022474;28;20633;-66
2023/05/20 01:34:24;;;;;;;12.03;9.50;;;;;;;15.59;91.54;99656.81;5024369;28;20189;-67
2023/05/20 01:36:52;;;;;;;9.97;9.10;;;;;;;15.35;92.53;99657.72;5023616;28;20658;-66
2023/05/20 01:39:19;;;;;;;10.50;9.40;;;;;;;15.15;93.45;99654.38;5022439;28;20658;-67
2023/05/20 01:41:48;;;;;;;10.53;9.13;;;;;;;14.99;94.17;99654.94;5019611;28;20697;-67
2023/05/20 01:44:15;;;;;;;10.47;8.77;;;;;;;14.89;95.27;99645.78;5021503;28;20202;-65
2023/05/20 01:46:42;;;;;;;9.80;9.00;;;;;;;14.81;95.50;99654.94;5022156;28;20202;-65
2023/05/20 01:49:09;;;;;;;9.60;8.80;;;;;;;14.88;95.77;99641.50;5023860;28;20259;-66
2023/05/20 01:51:36;;;;;;;9.60;8.67;;;;;;;14.91;95.71;99649.88;5018835;28;20744;-65
2023/05/20 01:54:03;;;;;;;11.53;10.03;;;;;;;14.84;96.27;99641.13;5021381;28;20208;-66
2023/05/20 01:56:30;;;;;;;12.47;9.13;;;;;;;14.80;95.93;99634.56;5022521;28;20698;-66
2023/05/20 01:58:58;;;;;;;10.37;9.37;;;;;;;14.91;96.30;99635.72;5022718;28;20202;-66
2023/05/20 02:01:25;;;;;;;10.13;9.13;;;;;;;15.01;96.00;99647.53;5022449;28;20229;-66
2023/05/20 02:03:52;;;;;;;10.60;9.57;;;;;;;15.08;95.58;99645.59;5022162;28;20189;-66
2023/05/20 02:06:18;;;;;;;9.53;8.67;;;;;;;15.11;94.60;99647.03;5023449;28;20201;-65
2023/05/20 02:08:45;;;;;;;11.00;10.00;;;;;;;15.09;94.42;99647.25;5022355;28;20247;-66
2023/05/20 02:11:12;;;;;;;9.87;9.17;;;;;;;15.01;95.28;99642.19;5022726;28;20692;-66
2023/05/20 02:13:39;;;;;;;11.20;9.97;;;;;;;14.92;95.67;99622.13;5022585;28;20240;-66
2023/05/20 02:16:07;;;;;;;10.63;9.73;;;;;;;14.95;95.80;99627.00;5022433;28;20201;-66
2023/05/20 02:18:34;;;;;;;11.57;10.57;;;;;;;14.75;95.54;99620.22;5021897;28;20190;-66
2023/05/20 02:21:02;;;;;;;10.33;9.33;;;;;;;14.83;95.93;99623.41;5021693;28;20213;-66
2023/05/20 02:23:29;;;;;;;10.67;9.67;;;;;;;14.76;95.29;99625.34;5023759;28;20201;-66
2023/05/20 02:25:56;;;;;;;11.13;9.97;;;;;;;14.69;95.50;99619.25;5021833;28;20576;-66
2023/05/20 02:28:23;;;;;;;11.50;10.50;;;;;;;14.64;96.11;99624.44;5022381;28;20185;-66
2023/05/20 02:30:58;;;;;;;12.23;9.70;;;;;;;14.61;95.54;99635.56;5109386;27;20546;-67
2023/05/20 02:33:27;;;;;;;10.80;9.83;;;;;;;14.49;96.36;99629.28;5109147;28;20186;-66
2023/05/20 02:35:54;;;;;;;13.47;10.63;;;;;;;14.42;97.25;99633.84;5106820;28;20189;-66
2023/05/20 02:38:21;;;;;;;12.17;10.60;;;;;;;14.51;97.79;99624.53;5109102;28;20252;-66
2023/05/20 02:40:47;;;;;;;12.53;10.07;;;;;;;14.58;96.86;99625.28;5108873;28;20206;-66
2023/05/20 02:43:14;;;;;;;10.80;9.80;;;;;;;14.50;96.55;99619.41;5109525;28;20191;-66
2023/05/20 02:45:41;;;;;;;10.03;9.00;;;;;;;14.47;96.83;99623.34;5109352;28;20731;-66
2023/05/20 02:48:09;;;;;;;11.00;9.63;;;;;;;14.38;96.32;99629.97;5109387;28;20614;-66
2023/05/20 02:50:39;;;;;;;10.83;9.90;;;;;;;14.33;96.61;99627.13;5109245;28;20256;-66
2023/05/20 02:53:05;;;;;;;13.30;10.07;;;;;;;14.27;97.11;99624.50;5109734;28;20285;-66
2023/05/20 02:55:34;;;;;;;10.70;9.80;;;;;;;14.33;96.88;99618.28;5109529;28;20198;-66
2023/05/20 02:58:01;;;;;;;14.33;10.27;;;;;;;14.35;95.87;99619.72;5108671;28;20240;-66
2023/05/20 03:00:29;;;;;;;11.63;10.63;;;;;;;14.39;96.28;99622.78;5108175;28;20210;-66
2023/05/20 03:02:56;;;;;;;15.23;10.73;;;;;;;14.48;95.51;99630.31;5108907;28;20225;-66
2023/05/20 03:05:24;;;;;;;11.53;10.57;;;;;;;14.50;95.69;99635.44;5108775;28;20187;-66
2023/05/20 03:07:50;;;;;;;11.00;9.97;;;;;;;14.49;95.38;99631.94;5108565;28;20727;-66
2023/05/20 03:10:17;;;;;;;10.53;9.47;;;;;;;14.56;94.64;99637.25;5105116;28;20604;-66
2023/05/20 03:12:44;;;;;;;9.73;8.80;;;;;;;14.59;94.36;99636.81;5108822;28;20191;-66
2023/05/20 03:15:11;;;;;;;9.93;9.03;;;;;;;14.59;93.04;99637.63;5108377;28;20191;-67
2023/05/20 03:17:38;;;;;;;11.03;9.80;;;;;;;14.58;92.92;99635.97;5106209;28;20183;-66
2023/05/20 03:20:06;;;;;;;11.30;8.80;;;;;;;14.65;92.85;99642.09;5108087;28;20219;-66
2023/05/20 03:22:34;;;;;;;11.07;9.80;;;;;;;14.58;92.04;99638.66;5107612;28;20680;-66
2023/05/20 03:25:01;;;;;;;11.27;10.20;;;;;;;14.47;92.25;99649.25;5108492;28;20195;-66
2023/05/20 03:27:27;;;;;;;11.10;9.60;;;;;;;14.42;93.45;99641.06;5105909;28;20188;-66
2023/05/20 03:29:54;;;;;;;9.97;8.97;;;;;;;14.35;92.88;99649.13;5107492;28;20256;-66
2023/05/20 03:32:21;;;;;;;9.27;8.60;;;;;;;14.42;92.79;99657.09;5108901;28;20278;-66
2023/05/20 03:34:48;;;;;;;11.77;9.03;;;;;;;14.49;93.12;99669.38;5108818;28;20240;-66
2023/05/20 03:37:14;;;;;;;10.63;9.47;;;;;;;14.57;92.82;99687.81;5108396;28;20191;-66
2023/05/20 03:39:42;;;;;;;10.00;8.90;;;;;;;14.64;92.79;99698.47;5107537;28;20219;-67
2023/05/20 03:42:09;;;;;;;9.50;8.63;;;;;;;14.71;92.68;99705.38;5095467;28;20195;-66
2023/05/20 03:44:35;;;;;;;9.67;8.87;;;;;;;14.86;92.58;99703.22;5091522;28;20187;-67
2023/05/20 03:47:02;;;;;;;10.43;9.20;;;;;;;15.01;92.32;99694.88;5095019;28;20192;-67
2023/05/20 03:49:29;;;;;;;10.23;8.60;;;;;;;15.17;91.19;99697.81;5094554;28;20252;-67
2023/05/20 03:51:55;;;;;;;14.60;9.80;;;;;;;15.26;90.53;99699.16;5094753;28;20191;-66
2023/05/20 03:54:22;;;;;;;13.60;8.93;;;;;;;15.46;90.17;99694.47;5094017;28;20272;-67
2023/05/20 03:56:50;;;;;;;12.10;7.97;;;;;;;15.66;89.17;99695.06;5094852;28;20245;-67
2023/05/20 03:59:18;;;;;;;9.50;8.67;;;;;;;16.04;89.66;99694.78;5094567;28;20310;-67
2023/05/20 04:01:45;;;;;;;10.23;9.33;;;;;;;16.78;87.14;99689.81;5094417;28;20191;-66
2023/05/20 04:04:12;;;;;;;10.17;8.63;;;;;;;17.68;82.82;99709.94;5094366;28;20194;-66
2023/05/20 04:06:39;;;;;;;9.77;8.60;;;;;;;18.50;79.79;99717.50;5093358;28;20195;-68
2023/05/20 04:09:06;;;;;;;9.10;8.00;;;;;;;19.28;75.40;99716.44;5094541;28;20206;-68
2023/05/20 04:11:32;;;;;;;8.07;7.13;;;;;;;20.03;72.28;99730.13;5094510;28;20187;-70
2023/05/20 04:14:00;;;;;;;9.93;7.43;;;;;;;20.73;69.21;99735.50;5094490;28;20203;-70
2023/05/20 04:16:28;;;;;;;12.83;7.60;;;;;;;21.03;67.56;99742.03;5093776;28;20256;-72
2023/05/20 04:18:55;;;;;;;8.47;7.70;;;;;;;20.67;66.62;99737.38;5094350;28;20200;-72
2023/05/20 04:21:21;;;;;;;9.20;8.17;;;;;;;20.37;68.05;99731.63;5094243;28;20276;-72
2023/05/20 04:23:48;;;;;;;11.40;8.10;;;;;;;20.58;66.91;99722.69;5093998;28;20191;-73
2023/05/20 04:26:15;;;;;;;10.10;7.40;;;;;;;21.08;65.86;99728.59;5093434;28;20191;-73
2023/05/20 04:28:42;;;;;;;8.70;7.90;;;;;;;21.41;63.36;99743.69;5094026;28;20278;-72
2023/05/20 04:31:10;;;;;;;9.13;7.97;;;;;;;21.83;63.25;99731.81;5094262;28;20191;-73
2023/05/20 04:33:37;;;;;;;8.97;8.20;;;;;;;22.23;60.58;99742.00;5093509;28;20248;-74
2023/05/20 04:36:06;;;;;;;8.10;7.27;;;;;;;22.59;60.47;99736.47;5093999;28;20191;-73
2023/05/20 04:38:33;;;;;;;8.23;7.63;;;;;;;22.69;58.80;99735.63;5093733;28;20227;-72
2023/05/20 04:41:00;;;;;;;10.30;6.87;;;;;;;22.86;57.44;99734.31;5093769;28;20643;-69
2023/05/20 04:43:28;;;;;;;9.27;7.20;;;;;;;22.93;56.46;99731.34;5093469;28;20202;-71
2023/05/20 04:45:55;;;;;;;10.80;7.53;;;;;;;22.77;57.10;99733.22;5092951;28;20662;-73
2023/05/20 04:48:24;;;;;;;7.73;7.17;;;;;;;22.30;58.54;99732.53;5093800;28;20240;-73
2023/05/20 04:50:51;;;;;;;9.40;7.37;;;;;;;21.83;60.72;99721.00;5093735;28;20199;-69
2023/05/20 04:53:18;;;;;;;9.37;7.23;;;;;;;22.20;61.19;99732.50;5092762;28;20274;-73
2023/05/20 04:55:45;;;;;;;33.33;7.27;;;;;;;22.75;58.48;99721.81;5092968;28;20244;-68
2023/05/20 04:58:14;;;;;;;8.97;8.03;;;;;;;23.49;55.81;99741.09;5093392;28;20265;-68
2023/05/20 05:00:41;;;;;;;10.23;7.97;;;;;;;23.71;54.02;99738.88;5093225;28;20223;-69
2023/05/20 05:03:08;;;;;;;9.90;7.27;;;;;;;23.84;52.96;99741.84;5093153;28;20198;-65
2023/05/20 05:05:37;;;;;;;7.27;6.33;;;;;;;24.26;56.07;99728.66;5092023;28;20198;-70
2023/05/20 05:08:04;;;;;;;8.77;7.80;;;;;;;24.50;51.27;99737.75;5091668;28;20195;-66
2023/05/20 05:10:31;;;;;;;12.53;6.53;;;;;;;24.94;50.02;99737.78;5092716;28;20630;-65
2023/05/20 05:12:58;;;;;;;9.90;7.23;;;;;;;25.64;48.37;99733.66;5092642;28;20246;-68
2023/05/20 05:15:25;;;;;;;8.00;7.30;;;;;;;26.02;47.10;99730.78;5092148;28;20611;-67
2023/05/20 05:17:52;;;;;;;8.33;7.53;;;;;;;26.55;45.47;99726.00;5092914;28;20255;-68
2023/05/20 05:20:19;;;;;;;8.07;7.27;;;;;;;26.76;47.77;99730.06;5092688;28;20225;-64
2023/05/20 05:22:49;;;;;;;11.37;7.10;;;;;;;27.13;47.20;99727.28;5092735;28;20614;-65
2023/05/20 05:25:16;;;;;;;9.37;6.90;;;;;;;27.49;44.61;99728.34;5092864;28;20191;-65
2023/05/20 05:27:43;;;;;;;10.77;7.20;;;;;;;27.66;43.76;99723.91;5092121;28;20199;-65
2023/05/20 05:30:10;;;;;;;7.50;6.87;;;;;;;27.82;42.30;99727.19;5092108;28;20219;-66
2023/05/20 05:32:37;;;;;;;9.97;6.63;;;;;;;27.95;43.18;99729.94;5091854;28;20191;-64
2023/05/20 05:35:04;;;;;;;11.63;10.40;;;;;;;28.75;39.96;99733.66;5090718;28;20187;-63
2023/05/20 05:37:31;;;;;;;7.67;6.70;;;;;;;28.88;39.89;99746.47;5091264;28;20252;-64
2023/05/20 05:39:59;;;;;;;7.10;6.47;;;;;;;28.83;40.93;99734.84;5092210;28;20262;-64
2023/05/20 05:42:26;;;;;;;9.57;6.97;;;;;;;29.20;40.43;99735.31;5091327;28;20184;-65
2023/05/20 05:44:52;;;;;;;7.37;6.67;;;;;;;29.59;37.74;99742.81;5091322;28;20199;-66
2023/05/20 05:47:19;;;;;;;8.97;6.83;;;;;;;29.86;37.66;99742.66;5091677;28;20214;-66
2023/05/20 05:49:46;;;;;;;8.30;7.50;;;;;;;30.51;37.13;99732.53;5092166;28;20626;-68
2023/05/20 05:52:13;;;;;;;7.27;6.60;;;;;;;30.56;36.65;99729.63;5092512;28;20195;-65
2023/05/20 05:54:39;;;;;;;11.87;7.30;;;;;;;31.14;34.46;99726.41;5091939;28;20217;-65
2023/05/20 05:57:08;;;;;;;8.47;6.63;;;;;;;30.73;36.81;99713.22;5092009;28;20671;-65
2023/05/20 05:59:35;;;;;;;39.40;8.30;;;;;;;30.50;36.83;99714.44;5092045;28;20191;-65
2023/05/20 06:02:02;;;;;;;8.53;7.53;;;;;;;30.65;34.59;99711.25;5091502;28;20694;-65
2023/05/20 06:04:28;;;;;;;7.10;6.50;;;;;;;30.41;36.37;99710.88;5090837;28;20548;-65
2023/05/20 06:06:55;;;;;;;9.00;7.23;;;;;;;30.15;37.50;99715.53;5090225;28;20194;-64
2023/05/20 06:09:22;;;;;;;10.10;7.23;;;;;;;30.26;36.94;99716.84;5089667;28;20187;-65
2023/05/20 06:11:48;;;;;;;11.80;7.40;;;;;;;30.23;38.43;99711.19;5091521;28;20252;-66
2023/05/20 06:14:16;;;;;;;19.07;7.83;;;;;;;30.36;36.93;99719.28;5091177;28;20191;-67
2023/05/20 06:16:43;;;;;;;13.73;7.93;;;;;;;30.47;35.73;99717.03;5091522;28;20545;-65
2023/05/20 06:19:10;;;;;;;7.80;7.00;;;;;;;30.15;37.33;99715.53;5091690;28;20686;-66
2023/05/20 06:21:37;;;;;;;10.87;7.80;;;;;;;29.89;37.49;99702.84;5091699;28;20245;-73
2023/05/20 06:24:04;;;;;;;11.27;7.77;;;;;;;29.95;38.51;99694.16;5090012;28;20214;-72
2023/05/20 06:26:31;;;;;;;9.80;6.73;;;;;;;29.83;37.24;99707.66;5087803;28;20612;-75
2023/05/20 06:28:57;;;;;;;35.23;7.77;;;;;;;29.59;38.02;99699.00;5091193;28;20231;-72
2023/05/20 06:31:25;;;;;;;6.90;6.20;;;;;;;29.23;38.58;99703.00;5091719;28;20187;-71
2023/05/20 06:33:52;;;;;;;9.03;6.83;;;;;;;28.97;39.40;99705.50;5091984;28;20274;-70
2023/05/20 06:36:19;;;;;;;7.40;6.90;;;;;;;29.06;39.13;99695.47;5091957;28;20193;-71
2023/05/20 06:38:46;;;;;;;7.53;6.73;;;;;;;29.23;39.90;99706.50;5091487;28;20205;-70
2023/05/20 06:41:13;;;;;;;7.37;6.53;;;;;;;29.28;40.72;99688.03;5090218;28;20370;-72
2023/05/20 06:43:40;;;;;;;7.43;6.00;;;;;;;29.38;37.46;99697.91;5090761;28;20191;-70
2023/05/20 06:46:07;;;;;;;9.00;6.53;;;;;;;29.31;41.16;99689.34;5087518;28;20188;-71
2023/05/20 06:48:35;;;;;;;13.50;6.50;;;;;;;29.69;39.12;99682.31;5091030;28;20219;-72
2023/05/20 06:51:01;;;;;;;8.53;6.53;;;;;;;29.86;37.56;99692.50;5071152;28;20253;-73
2023/05/20 06:53:28;;;;;;;14.00;6.87;;;;;;;30.01;36.82;99692.88;5071259;28;20200;-73
2023/05/20 06:55:55;;;;;;;12.63;6.13;;;;;;;30.13;37.53;99692.28;5074215;28;20199;-73
2023/05/20 06:58:22;;;;;;;6.43;5.83;;;;;;;30.25;35.75;99696.03;5087413;28;20206;-72
2023/05/20 07:00:49;;;;;;;13.80;6.47;;;;;;;30.19;36.66;99685.53;5088882;28;20272;-74
2023/05/20 07:03:15;;;;;;;13.60;6.33;;;;;;;30.39;38.04;99691.22;5090623;28;20545;-79
2023/05/20 07:05:44;;;;;;;8.57;6.43;;;;;;;30.37;37.57;99687.97;5091137;28;20618;-76
2023/05/20 07:08:11;;;;;;;15.03;6.53;;;;;;;30.50;34.82;99698.00;5090568;28;20256;-84
2023/05/20 07:10:38;;;;;;;6.97;6.27;;;;;;;30.53;33.71;99697.34;5091724;28;20191;-83
2023/05/20 07:13:04;;;;;;;8.37;6.50;;;;;;;30.64;33.56;99692.34;5091519;28;20577;-83
2023/05/20 07:15:31;;;;;;;27.70;6.43;;;;;;;30.79;34.06;99702.88;5091028;28;20249;-78
2023/05/20 07:17:58;;;;;;;10.27;6.40;;;;;;;30.81;33.93;99704.16;5083294;28;20248;-78
2023/05/20 07:20:24;;;;;;;6.83;6.07;;;;;;;30.58;33.60;99705.41;5095265;28;20333;-78
2023/05/20 07:22:52;;;;;;;6.43;6.03;;;;;;;30.51;34.63;99699.63;5094965;28;20253;-80
2023/05/20 07:25:19;;;;;;;26.47;7.17;;;;;;;30.23;33.02;99697.47;5093535;28;20572;-77
2023/05/20 07:27:46;;;;;;;10.83;6.40;;;;;;;30.36;33.81;99702.81;5093589;28;20207;-77
2023/05/20 07:30:13;;;;;;;6.23;5.43;;;;;;;30.55;33.80;99706.09;5094802;28;20659;-77
2023/05/20 07:32:39;;;;;;;8.03;6.43;;;;;;;30.79;32.90;99697.41;5094850;28;20199;-77
2023/05/20 07:35:07;;;;;;;7.20;6.60;;;;;;;30.81;32.42;99700.59;5094504;28;20252;-76
2023/05/20 07:37:33;;;;;;;5.87;5.50;;;;;;;30.88;32.30;99709.97;5095131;28;20206;-76
2023/05/20 07:40:01;;;;;;;6.63;6.23;;;;;;;30.92;32.96;99710.94;5094683;28;20191;-77
2023/05/20 07:42:28;;;;;;;15.10;7.13;;;;;;;30.70;32.68;99702.88;5094933;28;20276;-76
2023/05/20 07:44:55;;;;;;;7.50;5.40;;;;;;;30.75;32.16;99713.72;5095203;28;20199;-76
2023/05/20 07:47:21;;;;;;;6.27;5.77;;;;;;;30.66;30.51;99706.56;5094066;28;20222;-76
2023/05/20 07:49:48;;;;;;;6.20;5.80;;;;;;;30.83;30.51;99698.38;5094708;28;20191;-77
2023/05/20 07:52:15;;;;;;;5.47;5.13;;;;;;;31.04;31.07;99705.63;5094423;28;20200;-76
2023/05/20 07:54:42;;;;;;;11.23;5.37;;;;;;;31.13;31.46;99700.91;5095099;28;20206;-76
2023/05/20 07:57:10;;;;;;;6.70;6.13;;;;;;;31.23;31.96;99705.28;5094819;28;20621;-78
2023/05/20 07:59:36;;;;;;;6.23;5.77;;;;;;;31.37;31.61;99705.88;5093790;28;20237;-78
2023/05/20 08:02:03;;;;;;;8.07;6.47;;;;;;;31.47;31.87;99700.03;5094595;28;20223;-76
2023/05/20 08:04:30;;;;;;;9.77;5.50;;;;;;;31.73;31.59;99698.78;5094153;28;20192;-76
2023/05/20 08:06:56;;;;;;;6.07;5.57;;;;;;;31.67;29.58;99678.16;5094374;28;20219;-78
2023/05/20 08:09:23;;;;;;;6.37;5.67;;;;;;;31.83;29.42;99692.16;5094165;28;20621;-78
2023/05/20 08:11:50;;;;;;;6.77;6.20;;;;;;;31.82;29.68;99694.13;5093711;28;20256;-79
2023/05/20 08:14:18;;;;;;;6.57;6.10;;;;;;;31.75;28.84;99692.97;5094391;28;20798;-79
2023/05/20 08:16:45;;;;;;;12.23;6.20;;;;;;;31.92;28.59;99695.66;5094097;28;20203;-79
2023/05/20 08:19:12;;;;;;;9.03;5.30;;;;;;;32.15;28.22;99700.56;5094314;28;20195;-79
2023/05/20 08:21:38;;;;;;;7.13;6.50;;;;;;;31.98;28.32;99697.94;5093964;28;20702;-81
2023/05/20 08:24:06;;;;;;;14.40;7.20;;;;;;;31.78;29.34;99695.09;5093507;28;20667;-79
2023/05/20 08:26:32;;;;;;;9.17;6.17;;;;;;;31.77;29.12;99688.78;5094220;28;20237;-81
2023/05/20 08:28:59;;;;;;;6.43;5.97;;;;;;;31.95;28.50;99684.84;5093999;28;20230;-75
2023/05/20 08:31:27;;;;;;;7.03;6.00;;;;;;;32.06;28.89;99683.28;5094210;28;20277;-80
2023/05/20 08:33:54;;;;;;;6.87;6.03;;;;;;;32.16;29.57;99673.84;5093693;28;20206;-78
2023/05/20 08:36:21;;;;;;;9.77;5.47;;;;;;;32.31;28.41;99682.38;5093246;28;20187;-80
2023/05/20 08:38:48;;;;;;;6.70;6.10;;;;;;;32.31;28.24;99676.88;5094027;28;20187;-79
2023/05/20 08:41:15;;;;;;;6.53;6.00;;;;;;;32.37;28.12;99685.72;5093984;28;20406;-78
2023/05/20 08:43:43;;;;;;;6.33;5.93;;;;;;;32.50;27.87;99688.22;5093796;28;20191;-76
2023/05/20 08:46:11;;;;;;;31.00;9.10;;;;;;;32.24;28.31;99681.25;5093843;28;20191;-74
2023/05/20 08:48:39;;;;;;;6.60;6.00;;;;;;;31.73;29.54;99679.56;5093177;28;20241;-75
2023/05/20 08:51:09;;;;;;;6.37;5.87;;;;;;;31.94;29.56;99683.22;5093464;28;20191;-76
2023/05/20 08:53:36;;;;;;;7.27;5.90;;;;;;;31.88;28.68;99683.72;5093768;28;20256;-78
2023/05/20 08:56:03;;;;;;;5.83;5.43;;;;;;;31.58;28.49;99688.38;5092719;28;20195;-78
2023/05/20 08:58:30;;;;;;;5.50;5.10;;;;;;;31.54;28.75;99679.19;5093303;28;20546;-77
2023/05/20 09:00:57;;;;;;;6.00;5.40;;;;;;;31.54;28.72;99679.19;5093517;28;20227;-76
2023/05/20 09:03:24;;;;;;;8.43;5.47;;;;;;;31.42;29.36;99684.56;5093104;28;20187;-72
2023/05/20 09:05:53;;;;;;;6.53;5.90;;;;;;;30.46;30.39;99686.03;5092931;28;20268;-73
2023/05/20 09:08:24;;;;;;;6.20;5.47;;;;;;;30.11;31.28;99673.41;5092930;28;20722;-78
2023/05/20 09:10:52;;;;;;;5.73;5.23;;;;;;;29.56;32.68;99668.69;5093331;28;20257;-80
2023/05/20 09:13:19;;;;;;;7.63;5.17;;;;;;;29.35;32.44;99668.41;5093170;28;20256;-77
2023/05/20 09:15:45;;;;;;;6.97;5.23;;;;;;;29.42;32.81;99667.97;5092512;28;20194;-78
2023/05/20 09:18:12;;;;;;;5.97;5.20;;;;;;;29.46;32.22;99672.50;5092802;28;20654;-78
2023/05/20 09:20:40;;;;;;;6.03;5.47;;;;;;;29.37;32.42;99663.47;5093175;28;20240;-77
2023/05/20 09:23:09;;;;;;;5.60;5.30;;;;;;;29.52;31.92;99671.22;5093034;28;20204;-75
2023/05/20 09:25:37;;;;;;;5.23;4.93;;;;;;;29.36;32.72;99667.31;5092302;28;20192;-76
2023/05/20 09:28:05;;;;;;;5.47;5.03;;;;;;;29.59;32.62;99666.16;5092784;28;20191;-77
2023/05/20 09:30:32;;;;;;;5.97;5.47;;;;;;;29.58;33.19;99663.72;5092631;28;20756;-76
2023/05/20 09:33:00;;;;;;;5.27;4.87;;;;;;;29.55;33.46;99667.88;5092627;28;20191;-76
2023/05/20 09:35:28;;;;;;;5.80;5.40;;;;;;;29.68;33.71;99677.16;5092201;28;20572;-76
2023/05/20 09:37:55;;;;;;;5.80;5.40;;;;;;;29.67;34.03;99665.38;5091905;28;20257;-77
2023/05/20 09:40:26;;;;;;;6.90;6.03;;;;;;;28.90;35.41;99672.31;5091999;28;20191;-77
2023/05/20 09:42:54;;;;;;;6.57;5.77;;;;;;;29.00;35.35;99661.16;5092571;28;20211;-76
2023/05/20 09:45:22;;;;;;;6.70;6.03;;;;;;;28.99;34.93;99668.53;5092266;28;20190;-79
2023/05/20 09:47:50;;;;;;;6.40;6.00;;;;;;;29.16;35.52;99662.38;5092222;28;20202;-78
2023/05/20 09:50:19;;;;;;;6.13;5.50;;;;;;;28.80;36.11;99653.44;5092155;28;20199;-73
2023/05/20 09:52:47;;;;;;;9.47;6.10;;;;;;;28.56;36.88;99644.72;5092600;28;20206;-77
2023/05/20 09:55:14;;;;;;;5.97;5.47;;;;;;;29.03;34.99;99647.66;5092097;28;20631;-77
2023/05/20 09:57:43;;;;;;;5.47;5.17;;;;;;;29.33;33.90;99645.22;5091238;28;20197;-77
2023/05/20 10:00:12;;;;;;;6.03;5.10;;;;;;;29.22;34.44;99650.16;5091923;28;20252;-78
2023/05/20 10:02:42;;;;;;;5.67;5.10;;;;;;;29.44;33.88;99639.19;5091980;28;20219;-77
2023/05/20 10:05:16;;;;;;;4.83;4.53;;;;;;;29.59;33.85;99644.25;5092100;28;20213;-78
2023/05/20 10:08:14;;;;;;;6.20;4.80;;;;;;;29.22;34.93;99635.69;5091749;28;20187;-78
2023/05/20 10:10:48;;;;;;;9.93;6.20;;;;;;;28.45;36.94;99638.69;5071930;28;20188;-74
2023/05/20 10:13:28;;;;;;;7.37;5.60;;;;;;;28.50;36.31;99632.31;5072039;28;20556;-78
2023/05/20 10:16:03;;;;;;;5.70;5.30;;;;;;;28.77;36.47;99632.97;5071199;28;20183;-77
2023/05/20 10:18:41;;;;;;;5.27;4.80;;;;;;;28.74;36.21;99627.31;5075011;28;20240;-77
2023/05/20 10:21:16;;;;;;;5.47;5.13;;;;;;;28.23;37.29;99637.81;5091711;28;20189;-78
2023/05/20 10:23:42;;;;;;;6.50;5.87;;;;;;;28.37;37.34;99620.25;5091824;28;20647;-77
2023/05/20 10:26:09;;;;;;;8.13;5.27;;;;;;;28.44;37.96;99628.06;5091900;28;20203;-77
2023/05/20 10:28:40;;;;;;;7.47;5.93;;;;;;;27.90;38.17;99628.16;5091465;28;20241;-78
2023/05/20 10:31:16;;;;;;;6.47;5.90;;;;;;;28.17;38.10;99628.13;5090585;28;20630;-77
2023/05/20 10:33:44;;;;;;;6.53;6.03;;;;;;;28.33;38.04;99626.63;5091500;28;20278;-76
2023/05/20 10:36:21;;;;;;;6.33;5.53;;;;;;;28.07;37.30;99644.72;5091864;28;20195;-76
2023/05/20 10:38:52;;;;;;;5.13;4.73;;;;;;;28.03;33.98;99643.72;5091561;28;20588;-74
2023/05/20 10:41:21;;;;;;;5.80;5.23;;;;;;;28.10;33.47;99633.19;5091891;28;20252;-76
2023/05/20 10:43:59;;;;;;;5.67;5.33;;;;;;;28.03;32.97;99632.78;5090803;28;20195;-77
2023/05/20 10:46:26;;;;;;;7.37;5.07;;;;;;;27.74;33.46;99629.56;5091815;28;20187;-78
2023/05/20 10:48:53;;;;;;;5.27;4.77;;;;;;;27.65;34.18;99624.00;5091408;28;20252;-73
2023/05/20 10:51:20;;;;;;;6.00;4.77;;;;;;;27.32;34.91;99622.47;5093136;28;20195;-77
2023/05/20 10:53:47;;;;;;;5.23;4.83;;;;;;;27.25;35.92;99633.00;5095644;28;20193;-77
2023/05/20 10:56:18;;;;;;;8.27;5.47;;;;;;;26.94;37.73;99637.34;5094310;28;20686;-77
2023/05/20 10:58:45;;;;;;;6.57;5.80;;;;;;;26.94;38.36;99633.78;5095608;28;20219;-77
2023/05/20 11:01:13;;;;;;;5.53;5.00;;;;;;;26.86;37.48;99648.94;5095148;28;20195;-72
2023/05/20 11:03:41;;;;;;;7.30;5.20;;;;;;;27.07;37.17;99646.69;5095273;28;20286;-71
2023/05/20 11:06:14;;;;;;;5.80;5.40;;;;;;;26.88;37.86;99632.28;5095605;28;20278;-76
2023/05/20 11:08:41;;;;;;;6.73;6.13;;;;;;;26.93;38.42;99634.91;5094847;28;20202;-76
2023/05/20 11:11:08;;;;;;;5.53;5.10;;;;;;;26.75;38.32;99630.31;5095122;28;20199;-76
2023/05/20 11:13:35;;;;;;;5.67;5.00;;;;;;;26.62;37.47;99633.81;5095076;28;20248;-77
2023/05/20 11:16:03;;;;;;;4.83;4.53;;;;;;;26.44;37.86;99629.97;5093516;28;20213;-71
2023/05/20 11:18:32;;;;;;;5.40;4.77;;;;;;;26.28;38.95;99641.38;5094356;28;20663;-73
2023/05/20 11:20:59;;;;;;;4.97;4.57;;;;;;;26.23;38.75;99630.56;5091209;28;20198;-75
2023/05/20 11:23:27;;;;;;;6.03;5.10;;;;;;;26.27;38.83;99626.13;5092514;28;20276;-74
2023/05/20 11:25:55;;;;;;;7.20;4.53;;;;;;;26.36;39.17;99622.47;5091502;28;20187;-74
2023/05/20 11:28:22;;;;;;;4.80;4.50;;;;;;;26.53;38.75;99621.91;5092268;28;20195;-74
2023/05/20 11:30:51;;;;;;;5.73;5.00;;;;;;;26.59;39.38;99612.59;5093896;28;20231;-74